createdAt,value
2018-12-22T00:00:41.365Z,55.03
2018-12-22T00:03:23.221Z,51.03
2018-12-22T00:06:05.282Z,49.77
2018-12-22T00:08:47.357Z,48.40
2018-12-22T00:11:29.499Z,63.33
2018-12-22T00:14:11.397Z,59.23
2018-12-22T00:16:53.269Z,59.77
2018-12-22T00:19:35.051Z,48.53
2018-12-22T00:22:17.179Z,58.63
2018-12-22T00:24:59.196Z,43.40
2018-12-22T00:27:41.146Z,55.23
2018-12-22T00:30:23.121Z,62.77
2018-12-22T00:33:04.882Z,63.20
2018-12-22T00:35:46.765Z,44.13
2018-12-22T00:38:28.773Z,42.63
2018-12-22T00:41:10.989Z,43.00
2018-12-22T00:43:53.045Z,43.97
2018-12-22T00:46:35.110Z,38.77
2018-12-22T00:49:17.029Z,39.43
2018-12-22T00:51:59.018Z,43.73
2018-12-22T00:54:41.046Z,39.93
2018-12-22T00:57:23.145Z,47.17
2018-12-22T01:00:06.345Z,47.77
2018-12-22T01:02:48.230Z,33.40
2018-12-22T01:05:30.150Z,43.20
2018-12-22T01:08:12.238Z,33.17
2018-12-22T01:10:54.322Z,50.20
2018-12-22T01:13:36.342Z,35.47
2018-12-22T01:16:18.191Z,34.20
2018-12-22T01:19:00.132Z,36.03
2018-12-22T01:21:42.105Z,33.10
2018-12-22T01:24:24.059Z,35.60
2018-12-22T01:27:06.189Z,30.33
2018-12-22T01:29:48.134Z,27.10
2018-12-22T01:32:30.359Z,22.23
2018-12-22T01:35:12.235Z,22.00
2018-12-22T01:37:54.015Z,22.43
2018-12-22T01:40:36.440Z,20.87
2018-12-22T01:43:18.542Z,18.77
2018-12-22T01:46:00.449Z,18.60
2018-12-22T01:48:42.635Z,14.57
2018-12-22T01:51:24.872Z,17.67
2018-12-22T01:54:06.633Z,17.30
2018-12-22T01:56:48.450Z,14.47
2018-12-22T01:59:30.627Z,17.60
2018-12-22T02:02:12.841Z,27.90
2018-12-22T02:04:55.011Z,28.17
2018-12-22T02:07:37.023Z,24.70
2018-12-22T02:10:19.345Z,23.30
2018-12-22T02:13:00.922Z,24.80
2018-12-22T02:15:42.930Z,27.77
2018-12-22T02:18:24.810Z,25.97
2018-12-22T02:21:07.173Z,30.60
2018-12-22T02:23:49.113Z,19.23
2018-12-22T02:26:30.877Z,26.87
2018-12-22T02:29:12.713Z,25.70
2018-12-22T02:31:54.747Z,23.80
2018-12-22T02:34:37.593Z,30.30
2018-12-22T02:37:19.773Z,35.00
2018-12-22T02:40:01.644Z,31.40
2018-12-22T02:42:43.753Z,27.80
2018-12-22T02:45:25.646Z,32.93
2018-12-22T02:48:07.405Z,28.93
2018-12-22T02:50:49.521Z,34.20
2018-12-22T02:53:31.274Z,24.20
2018-12-22T02:56:13.397Z,31.07
2018-12-22T02:58:55.469Z,21.17
2018-12-22T03:01:37.552Z,30.97
2018-12-22T03:04:19.600Z,32.20
2018-12-22T03:07:01.817Z,30.10
2018-12-22T03:09:43.735Z,27.80
2018-12-22T03:12:25.855Z,35.63
2018-12-22T03:15:07.802Z,24.90
2018-12-22T03:17:49.653Z,22.93
2018-12-22T03:20:31.672Z,32.43
2018-12-22T03:23:13.848Z,18.33
2018-12-22T03:25:55.806Z,28.03
2018-12-22T03:28:37.979Z,29.27
2018-12-22T03:31:20.103Z,37.10
2018-12-22T03:34:02.360Z,35.60
2018-12-22T03:36:44.373Z,26.50
2018-12-22T03:39:26.509Z,25.03
2018-12-22T03:42:08.598Z,34.13
2018-12-22T03:44:50.604Z,24.20
2018-12-22T03:47:32.775Z,25.27
2018-12-22T03:50:14.827Z,28.07
2018-12-22T03:52:56.927Z,21.27
2018-12-22T03:55:39.047Z,25.83
2018-12-22T03:58:21.095Z,20.40
2018-12-22T04:01:03.226Z,31.40
2018-12-22T04:03:44.981Z,22.90
2018-12-22T04:06:27.123Z,24.70
2018-12-22T04:09:09.378Z,27.23
2018-12-22T04:11:51.178Z,28.77
2018-12-22T04:14:33.233Z,22.00
2018-12-22T04:17:15.119Z,20.23
2018-12-22T04:19:56.922Z,27.97
2018-12-22T04:22:39.166Z,20.20
2018-12-22T04:25:21.053Z,24.80
2018-12-22T04:28:03.238Z,21.00
2018-12-22T04:30:45.307Z,21.73
2018-12-22T04:33:27.574Z,23.83
2018-12-22T04:36:09.737Z,30.47
2018-12-22T04:38:52.835Z,22.93
2018-12-22T04:41:34.814Z,29.60
2018-12-22T04:44:17.061Z,24.27
2018-12-22T04:46:59.222Z,23.50
2018-12-22T04:49:41.389Z,24.17
2018-12-22T04:52:23.430Z,21.23
2018-12-22T04:55:05.337Z,26.23
2018-12-22T04:57:47.183Z,30.93
2018-12-22T05:00:29.553Z,21.10
2018-12-22T05:03:11.617Z,18.90
2018-12-22T05:05:53.617Z,22.93
2018-12-22T05:08:35.826Z,30.53
2018-12-22T05:11:17.610Z,32.07
2018-12-22T05:13:59.701Z,21.50
2018-12-22T05:16:41.758Z,35.33
2018-12-22T05:19:23.809Z,27.03
2018-12-22T05:22:05.785Z,26.80
2018-12-22T05:24:54.020Z,25.83
2018-12-22T05:27:35.695Z,24.50
2018-12-22T05:30:17.686Z,27.97
2018-12-22T05:32:59.849Z,28.63
2018-12-22T05:35:41.759Z,28.83
2018-12-22T05:38:23.970Z,25.77
2018-12-22T05:41:06.003Z,29.33
2018-12-22T05:43:48.093Z,30.77
2018-12-22T05:46:30.139Z,20.30
2018-12-22T05:49:12.258Z,26.90
2018-12-22T05:51:54.126Z,22.77
2018-12-22T05:54:36.297Z,22.37
2018-12-22T05:57:18.208Z,22.07
2018-12-22T06:00:01.027Z,30.13
2018-12-22T06:02:43.600Z,32.43
2018-12-22T06:05:25.584Z,27.63
2018-12-22T06:08:07.573Z,31.50
2018-12-22T06:10:49.501Z,26.37
2018-12-22T06:13:31.502Z,24.97
2018-12-22T06:16:13.858Z,20.97
2018-12-22T06:18:55.727Z,22.67
2018-12-22T06:21:37.588Z,20.70
2018-12-22T06:24:19.671Z,32.97
2018-12-22T06:27:01.334Z,28.90
2018-12-22T06:29:43.666Z,21.00
2018-12-22T06:32:25.765Z,26.47
2018-12-22T06:35:07.817Z,27.20
2018-12-22T06:37:49.964Z,32.40
2018-12-22T06:40:31.906Z,34.07
2018-12-22T06:43:13.610Z,22.73
2018-12-22T06:45:55.710Z,26.70
2018-12-22T06:48:37.857Z,29.43
2018-12-22T06:51:19.857Z,23.17
2018-12-22T06:54:08.373Z,29.57
2018-12-22T06:56:50.557Z,25.03
2018-12-22T06:59:32.480Z,29.93
2018-12-22T07:02:14.551Z,31.77
2018-12-22T07:04:56.546Z,29.73
2018-12-22T07:07:38.614Z,31.83
2018-12-22T07:10:20.759Z,23.33
2018-12-22T07:13:02.767Z,24.03
2018-12-22T07:15:44.780Z,19.33
2018-12-22T07:18:26.866Z,23.50
2018-12-22T07:21:08.891Z,25.40
2018-12-22T07:23:50.812Z,30.33
2018-12-22T07:26:32.782Z,28.43
2018-12-22T07:29:15.013Z,27.70
2018-12-22T07:31:57.015Z,24.00
2018-12-22T07:34:39.091Z,28.57
2018-12-22T07:37:21.081Z,29.20
2018-12-22T07:40:02.862Z,26.23
2018-12-22T07:42:44.736Z,24.87
2018-12-22T07:45:26.847Z,22.60
2018-12-22T07:48:09.814Z,25.97
2018-12-22T07:50:51.986Z,24.87
2018-12-22T07:53:33.810Z,35.57
2018-12-22T07:56:16.287Z,21.47
2018-12-22T07:58:58.191Z,29.53
2018-12-22T08:01:40.208Z,25.37
2018-12-22T08:04:22.486Z,23.47
2018-12-22T08:07:04.611Z,29.40
2018-12-22T08:09:46.788Z,36.17
2018-12-22T08:12:28.839Z,27.70
2018-12-22T08:15:10.688Z,18.33
2018-12-22T08:17:52.674Z,25.37
2018-12-22T08:20:34.793Z,25.23
2018-12-22T08:23:16.999Z,31.23
2018-12-22T08:25:58.861Z,21.73
2018-12-22T08:28:41.004Z,38.20
2018-12-22T08:31:23.211Z,31.17
2018-12-22T08:34:05.351Z,34.37
2018-12-22T08:36:47.254Z,22.77
2018-12-22T08:39:29.430Z,30.90
2018-12-22T08:42:12.438Z,38.27
2018-12-22T08:44:54.519Z,33.53
2018-12-22T08:47:36.673Z,25.47
2018-12-22T08:50:18.859Z,29.67
2018-12-22T08:53:00.603Z,31.77
2018-12-22T08:55:42.765Z,25.43
2018-12-22T08:58:24.590Z,26.47
2018-12-22T09:01:06.689Z,30.03
2018-12-22T09:03:48.541Z,29.87
2018-12-22T09:06:30.414Z,36.20
2018-12-22T09:09:12.335Z,32.30
2018-12-22T09:11:54.246Z,31.20
2018-12-22T09:14:36.283Z,22.60
2018-12-22T09:17:18.185Z,34.17
2018-12-22T09:20:00.402Z,28.13
2018-12-22T09:22:42.339Z,29.43
2018-12-22T09:25:24.632Z,30.23
2018-12-22T09:28:06.641Z,37.87
2018-12-22T09:30:48.806Z,22.57
2018-12-22T09:33:30.565Z,28.77
2018-12-22T09:36:12.666Z,37.80
2018-12-22T09:38:54.859Z,31.60
2018-12-22T09:41:36.950Z,31.10
2018-12-22T09:44:18.744Z,27.53
2018-12-22T09:47:00.892Z,27.37
2018-12-22T09:49:43.202Z,28.00
2018-12-22T09:52:25.461Z,29.67
2018-12-22T09:55:07.418Z,28.90
2018-12-22T09:57:49.130Z,31.50
2018-12-22T10:00:31.047Z,30.40
2018-12-22T10:04:16.901Z,23.53
2018-12-22T10:06:59.287Z,28.83
2018-12-22T10:09:41.447Z,32.97
2018-12-22T10:12:23.359Z,31.63
2018-12-22T10:15:06.597Z,23.37
2018-12-22T10:17:48.387Z,23.67
2018-12-22T10:20:30.361Z,33.70
2018-12-22T10:23:12.338Z,30.83
2018-12-22T10:25:54.193Z,35.77
2018-12-22T10:28:36.106Z,28.03
2018-12-22T10:31:19.158Z,45.80
2018-12-22T10:34:01.405Z,33.20
2018-12-22T10:36:43.391Z,37.00
2018-12-22T10:39:25.556Z,28.17
2018-12-22T10:42:07.453Z,29.60
2018-12-22T10:44:49.566Z,43.47
2018-12-22T10:47:31.569Z,30.87
2018-12-22T10:50:13.635Z,33.17
2018-12-22T10:52:55.699Z,40.43
2018-12-22T10:55:37.772Z,32.40
2018-12-22T10:58:19.869Z,25.10
2018-12-22T11:01:01.771Z,31.10
2018-12-22T11:03:43.750Z,36.87
2018-12-22T11:06:25.913Z,29.83
2018-12-22T11:09:11.236Z,25.27
2018-12-22T11:11:53.030Z,34.07
2018-12-22T11:14:35.190Z,32.37
2018-12-22T11:17:17.311Z,28.57
2018-12-22T11:19:59.301Z,34.37
2018-12-22T11:22:41.526Z,28.33
2018-12-22T11:25:25.474Z,29.43
2018-12-22T11:28:07.431Z,30.80
2018-12-22T11:30:49.424Z,27.63
2018-12-22T11:33:31.489Z,28.13
2018-12-22T11:36:13.429Z,26.20
2018-12-22T11:38:55.499Z,32.40
2018-12-22T11:41:37.510Z,30.80
2018-12-22T11:44:19.541Z,28.67
2018-12-22T11:47:06.884Z,32.87
2018-12-22T11:49:49.822Z,23.60
2018-12-22T11:52:31.813Z,26.40
2018-12-22T11:55:13.812Z,24.53
2018-12-22T11:57:56.098Z,20.97
2018-12-22T12:00:37.886Z,26.03
2018-12-22T12:03:19.846Z,28.37
2018-12-22T12:06:01.774Z,21.80
2018-12-22T12:08:43.878Z,26.57
2018-12-22T12:11:25.675Z,30.83
2018-12-22T12:14:07.682Z,23.73
2018-12-22T12:17:05.364Z,24.90
2018-12-22T12:19:47.734Z,28.23
2018-12-22T12:22:29.807Z,28.40
2018-12-22T12:25:12.036Z,25.70
2018-12-22T12:27:53.999Z,27.07
2018-12-22T12:30:36.145Z,26.30
2018-12-22T12:33:18.102Z,27.63
2018-12-22T12:35:59.938Z,20.37
2018-12-22T12:38:42.091Z,20.50
2018-12-22T12:41:24.134Z,21.40
2018-12-22T12:44:05.970Z,25.10
2018-12-22T12:46:50.047Z,19.07
2018-12-22T12:49:32.229Z,27.60
2018-12-22T12:52:14.350Z,25.47
2018-12-22T12:54:56.296Z,24.97
2018-12-22T12:57:38.172Z,23.40
2018-12-22T13:00:20.277Z,17.73
2018-12-22T13:03:02.483Z,17.67
2018-12-22T13:05:44.636Z,19.17
2018-12-22T13:08:26.664Z,22.87
2018-12-22T13:11:08.855Z,24.33
2018-12-22T13:14:10.326Z,20.67
2018-12-22T13:16:52.863Z,21.30
2018-12-22T13:19:34.850Z,19.03
2018-12-22T13:22:16.579Z,22.73
2018-12-22T13:24:58.834Z,21.10
2018-12-22T13:27:40.896Z,27.83
2018-12-22T13:30:22.988Z,15.93
2018-12-22T13:33:04.882Z,17.67
2018-12-22T13:35:47.046Z,23.50
2018-12-22T13:38:30.126Z,16.07
2018-12-22T13:41:11.891Z,19.57
2018-12-22T13:43:53.855Z,23.97
2018-12-22T13:46:35.906Z,17.53
2018-12-22T13:49:17.883Z,20.13
2018-12-22T13:51:59.927Z,21.90
2018-12-22T13:54:42.050Z,19.97
2018-12-22T13:57:24.011Z,16.33
2018-12-22T14:00:10.795Z,18.60
2018-12-22T14:02:52.388Z,26.87
2018-12-22T14:05:35.329Z,21.13
2018-12-22T14:08:17.331Z,24.97
2018-12-22T14:10:59.618Z,22.33
2018-12-22T14:13:41.713Z,19.83
2018-12-22T14:16:31.330Z,20.37
2018-12-22T14:19:14.819Z,22.80
2018-12-22T14:21:56.729Z,26.67
2018-12-22T14:24:43.821Z,15.67
2018-12-22T14:27:25.993Z,22.50
2018-12-22T14:30:11.002Z,21.70
2018-12-22T14:32:52.777Z,20.70
2018-12-22T14:35:44.805Z,19.20
2018-12-22T14:38:26.988Z,22.57
2018-12-22T14:41:09.009Z,19.53
2018-12-22T14:43:50.826Z,22.20
2018-12-22T14:46:32.622Z,23.27
2018-12-22T14:49:14.593Z,20.23
2018-12-22T14:51:56.552Z,13.90
2018-12-22T14:54:38.569Z,21.90
2018-12-22T14:57:20.854Z,27.13
2018-12-22T15:00:03.446Z,18.50
2018-12-22T15:02:46.226Z,18.27
2018-12-22T15:05:28.216Z,19.73
2018-12-22T15:08:10.078Z,19.67
2018-12-22T15:10:51.895Z,22.40
2018-12-22T15:13:33.850Z,24.60
2018-12-22T15:16:15.977Z,21.63
2018-12-22T15:18:58.118Z,24.13
2018-12-22T15:21:40.259Z,21.10
2018-12-22T15:24:36.718Z,22.20
2018-12-22T15:27:18.503Z,18.03
2018-12-22T15:30:00.498Z,22.90
2018-12-22T15:32:46.211Z,24.13
2018-12-22T15:35:26.174Z,39.80
2018-12-22T15:38:08.355Z,24.40
2018-12-22T15:40:50.300Z,39.23
2018-12-22T15:43:33.318Z,25.57
2018-12-22T15:46:15.135Z,20.97
2018-12-22T15:48:57.250Z,20.37
2018-12-22T15:51:39.410Z,26.57
2018-12-22T15:54:21.351Z,26.40
2018-12-22T15:57:03.561Z,20.13
2018-12-22T15:59:45.541Z,20.43
2018-12-22T16:02:27.581Z,21.63
2018-12-22T16:05:10.410Z,28.43
2018-12-22T16:07:52.656Z,48.47
2018-12-22T16:10:34.567Z,23.60
2018-12-22T16:13:16.965Z,26.37
2018-12-22T16:15:58.993Z,22.50
2018-12-22T16:18:40.878Z,27.10
2018-12-22T16:21:22.945Z,21.53
2018-12-22T16:24:04.974Z,23.67
2018-12-22T16:26:46.896Z,29.83
2018-12-22T16:29:32.234Z,24.93
2018-12-22T16:32:14.619Z,28.97
2018-12-22T16:34:56.617Z,19.07
2018-12-22T16:37:38.633Z,28.97
2018-12-22T16:40:20.602Z,31.50
2018-12-22T16:43:04.064Z,27.33
2018-12-22T16:45:49.724Z,27.03
2018-12-22T16:48:32.040Z,21.40
2018-12-22T16:51:13.641Z,25.63
2018-12-22T16:53:55.802Z,26.23
2018-12-22T16:56:37.814Z,26.20
2018-12-22T16:59:19.661Z,28.40
2018-12-22T17:02:16.525Z,31.13
2018-12-22T17:04:58.858Z,25.77
2018-12-22T17:07:41.042Z,25.90
2018-12-22T17:10:23.142Z,31.67
2018-12-22T17:13:05.126Z,31.70
2018-12-22T17:15:51.877Z,26.70
2018-12-22T17:18:34.202Z,26.17
2018-12-22T17:21:22.478Z,26.67
2018-12-22T17:24:12.661Z,23.20
2018-12-22T17:26:54.483Z,28.30
2018-12-22T17:29:36.381Z,31.83
2018-12-22T17:32:18.649Z,27.20
2018-12-22T17:35:00.708Z,24.17
2018-12-22T17:37:42.810Z,20.87
2018-12-22T17:40:24.723Z,33.43
2018-12-22T17:43:06.927Z,26.27
2018-12-22T17:45:48.999Z,22.63
2018-12-22T17:48:30.747Z,27.30
2018-12-22T17:51:12.841Z,28.60
2018-12-22T17:53:54.971Z,32.30
2018-12-22T17:56:36.891Z,20.30
2018-12-22T17:59:18.801Z,20.93
2018-12-22T18:02:01.487Z,29.87
2018-12-22T18:04:43.201Z,22.57
2018-12-22T18:07:24.922Z,20.77
2018-12-22T18:10:08.205Z,19.37
2018-12-22T18:12:50.150Z,37.97
2018-12-22T18:15:31.998Z,22.13
2018-12-22T18:18:14.213Z,27.47
2018-12-22T18:20:56.058Z,31.23
2018-12-22T18:23:38.198Z,30.83
2018-12-22T18:26:20.372Z,19.37
2018-12-22T18:29:02.288Z,20.50
2018-12-22T18:31:44.447Z,27.33
2018-12-22T18:34:26.510Z,25.30
2018-12-22T18:37:08.501Z,23.17
2018-12-22T18:39:50.416Z,31.43
2018-12-22T18:42:32.384Z,32.70
2018-12-22T18:45:14.330Z,24.07
2018-12-22T18:47:56.395Z,31.93
2018-12-22T18:50:38.739Z,20.33
2018-12-22T18:53:20.845Z,30.67
2018-12-22T18:56:02.675Z,27.37
2018-12-22T18:58:45.011Z,33.03
2018-12-22T19:01:26.711Z,31.07
2018-12-22T19:04:08.864Z,36.57
2018-12-22T19:06:50.919Z,35.57
2018-12-22T19:09:34.924Z,26.03
2018-12-22T19:12:18.306Z,31.70
2018-12-22T19:15:00.402Z,28.43
2018-12-22T19:17:42.321Z,26.87
2018-12-22T19:20:28.558Z,35.03
2018-12-22T19:23:12.271Z,33.03
2018-12-22T19:25:54.784Z,38.07
2018-12-22T19:28:36.654Z,31.47
2018-12-22T19:31:18.694Z,40.10
2018-12-22T19:34:00.421Z,29.10
2018-12-22T19:36:42.583Z,31.50
2018-12-22T19:39:24.443Z,29.60
2018-12-22T19:42:06.398Z,34.70
2018-12-22T19:44:48.499Z,40.33
2018-12-22T19:47:30.346Z,31.53
2018-12-22T19:50:12.518Z,29.07
2018-12-22T19:52:54.504Z,32.60
2018-12-22T19:55:36.189Z,26.90
2018-12-22T19:58:18.225Z,32.17
2018-12-22T20:01:00.526Z,44.00
2018-12-22T20:03:42.526Z,27.83
2018-12-22T20:06:25.156Z,39.20
2018-12-22T20:09:07.135Z,31.77
2018-12-22T20:11:49.421Z,29.90
2018-12-22T20:14:31.116Z,31.00
2018-12-22T20:17:13.244Z,32.70
2018-12-22T20:19:55.253Z,29.10
2018-12-22T20:22:37.095Z,39.73
2018-12-22T20:25:18.992Z,27.30
2018-12-22T20:28:00.978Z,32.33
2018-12-22T20:30:44.226Z,34.90
2018-12-22T20:33:26.286Z,32.27
2018-12-22T20:36:08.221Z,33.57
2018-12-22T20:38:50.293Z,30.27
2018-12-22T20:41:32.301Z,39.03
2018-12-22T20:44:14.154Z,35.93
2018-12-22T20:46:56.264Z,30.77
2018-12-22T20:49:38.078Z,39.73
2018-12-22T20:52:20.020Z,31.83
2018-12-22T20:55:01.662Z,40.50
2018-12-22T20:57:43.730Z,33.13
2018-12-22T21:00:25.607Z,24.13
2018-12-22T21:03:07.522Z,38.17
2018-12-22T21:05:58.506Z,38.83
2018-12-22T21:08:40.494Z,27.03
2018-12-22T21:11:22.219Z,33.13
2018-12-22T21:14:04.527Z,40.23
2018-12-22T21:16:47.302Z,27.23
2018-12-22T21:19:28.953Z,28.20
2018-12-22T21:22:10.885Z,41.03
2018-12-22T21:24:53.009Z,36.17
2018-12-22T21:27:34.833Z,36.33
2018-12-22T21:30:16.980Z,26.70
2018-12-22T21:32:59.302Z,32.03
2018-12-22T21:35:41.393Z,29.27
2018-12-22T21:38:24.336Z,29.60
2018-12-22T21:41:06.550Z,33.03
2018-12-22T21:43:48.520Z,33.50
2018-12-22T21:46:30.947Z,31.40
2018-12-22T21:49:13.030Z,34.43
2018-12-22T21:51:54.866Z,30.10
2018-12-22T21:54:36.941Z,29.93
2018-12-22T21:57:18.941Z,36.53
2018-12-22T22:00:00.677Z,31.87
2018-12-22T22:02:42.814Z,31.57
2018-12-22T22:05:24.758Z,37.40
2018-12-22T22:08:06.730Z,30.27
2018-12-22T22:10:48.596Z,36.63
2018-12-22T22:13:30.822Z,40.27
2018-12-22T22:16:12.785Z,39.90
2018-12-22T22:18:54.876Z,41.50
2018-12-22T22:21:37.129Z,33.93
2018-12-22T22:24:19.207Z,40.40
2018-12-22T22:27:01.242Z,42.97
2018-12-22T22:29:43.058Z,39.37
2018-12-22T22:32:25.202Z,39.00
2018-12-22T22:35:07.390Z,38.43
2018-12-22T22:40:45.447Z,29.33
2018-12-22T22:43:27.818Z,45.53
2018-12-22T22:46:09.934Z,35.80
2018-12-22T22:48:51.826Z,38.10
2018-12-22T22:51:33.829Z,39.40
2018-12-22T22:54:15.932Z,33.33
2018-12-22T22:56:59.390Z,33.77
2018-12-22T22:59:41.917Z,36.80
2018-12-22T23:02:24.122Z,45.37
2018-12-22T23:05:06.013Z,34.70
2018-12-22T23:07:47.717Z,43.63
2018-12-22T23:10:29.694Z,30.77
2018-12-22T23:13:11.648Z,32.53
2018-12-22T23:15:53.946Z,33.87
2018-12-22T23:18:35.981Z,46.67
2018-12-22T23:21:19.151Z,37.63
2018-12-22T23:24:01.185Z,38.70
2018-12-22T23:26:43.493Z,35.77
2018-12-22T23:29:25.280Z,32.27
2018-12-22T23:32:07.379Z,36.57
2018-12-22T23:34:49.530Z,34.50
2018-12-22T23:37:31.646Z,46.67
2018-12-22T23:40:14.485Z,47.70
2018-12-22T23:42:56.914Z,41.07
2018-12-22T23:45:39.115Z,46.33
2018-12-22T23:48:21.339Z,41.37
2018-12-22T23:51:02.954Z,26.47
2018-12-22T23:53:45.076Z,35.87
2018-12-22T23:56:26.896Z,42.43
2018-12-22T23:59:09.086Z,39.80
